createdAt,value
2022-10-06T00:01:36.359Z,100793.53
2022-10-06T00:04:04.258Z,100795.44
2022-10-06T00:06:32.002Z,100807.19
2022-10-06T00:08:59.843Z,100807.19
2022-10-06T00:11:27.505Z,100810.94
2022-10-06T00:13:55.274Z,100808.03
2022-10-06T00:16:23.675Z,100810.75
2022-10-06T00:18:51.703Z,100807.34
2022-10-06T00:21:19.658Z,100810.94
2022-10-06T00:23:47.403Z,100819.31
2022-10-06T00:26:17.044Z,100817.44
2022-10-06T00:28:45.266Z,100830.41
2022-10-06T00:31:13.075Z,100814.69
2022-10-06T00:33:40.817Z,100820.31
2022-10-06T00:36:08.580Z,100816.75
2022-10-06T00:38:36.358Z,100815.91
2022-10-06T00:41:08.665Z,100822.22
2022-10-06T01:18:30.257Z,100855.00
2022-10-06T01:20:58.692Z,100848.50
2022-10-06T01:23:26.420Z,100846.28
2022-10-06T01:25:54.116Z,100842.72
2022-10-06T01:28:21.880Z,100846.28
2022-10-06T01:30:53.043Z,100847.31
2022-10-06T01:33:20.886Z,100842.72
2022-10-06T01:35:48.633Z,100848.34
2022-10-06T01:38:16.345Z,100846.28
2022-10-06T01:40:44.031Z,100833.50
2022-10-06T01:43:11.697Z,100845.25
2022-10-06T01:45:39.544Z,100842.72
2022-10-06T01:48:07.273Z,100835.56
2022-10-06T01:50:35.003Z,100845.44
2022-10-06T01:53:02.719Z,100844.78
2022-10-06T01:55:30.397Z,100844.78
2022-10-06T01:57:58.266Z,100851.25
2022-10-06T02:00:25.984Z,100858.59
2022-10-06T02:02:53.668Z,100864.88
2022-10-06T02:05:21.356Z,100864.88
2022-10-06T02:07:49.154Z,100861.31
2022-10-06T02:10:16.968Z,100866.59
2022-10-06T02:12:44.641Z,100872.06
2022-10-06T02:15:12.337Z,100870.34
2022-10-06T02:17:40.237Z,100873.06
2022-10-06T02:20:08.293Z,100879.56
2022-10-06T02:22:36.045Z,100885.03
2022-10-06T02:25:03.811Z,100879.69
2022-10-06T02:27:31.531Z,100884.31
2022-10-06T02:29:59.225Z,100882.63
2022-10-06T02:32:26.900Z,100885.16
2022-10-06T02:34:55.743Z,100901.41
2022-10-06T02:37:23.518Z,100897.81
2022-10-06T02:39:51.274Z,100910.44
2022-10-06T02:42:19.864Z,100920.50
2022-10-06T02:44:47.689Z,100916.09
2022-10-06T02:47:16.077Z,100921.53
2022-10-06T02:49:43.768Z,100928.69
2022-10-06T02:52:12.034Z,100934.13
2022-10-06T02:54:39.688Z,100934.13
2022-10-06T02:57:07.521Z,100942.31
2022-10-06T02:59:36.005Z,100949.47
2022-10-06T03:02:03.951Z,100948.47
2022-10-06T03:04:31.744Z,100951.19
2022-10-06T03:06:59.446Z,100953.91
2022-10-06T03:09:27.356Z,100953.91
2022-10-06T03:11:55.076Z,100957.50
2022-10-06T03:14:22.788Z,100956.66
2022-10-06T03:16:51.666Z,100953.91
2022-10-06T03:19:19.417Z,100957.66
2022-10-06T03:21:47.354Z,100957.66
2022-10-06T03:24:15.070Z,100964.81
2022-10-06T03:26:42.852Z,100963.13
2022-10-06T03:29:11.969Z,100975.75
2022-10-06T03:31:40.154Z,100975.75
2022-10-06T03:34:08.185Z,100981.19
2022-10-06T03:36:35.964Z,100977.44
2022-10-06T03:39:03.898Z,100981.00
2022-10-06T03:41:31.608Z,100993.81
2022-10-06T03:43:59.394Z,100995.69
2022-10-06T03:46:27.451Z,101009.16
2022-10-06T03:48:55.291Z,101011.03
2022-10-06T03:51:22.957Z,101014.63
2022-10-06T03:53:50.881Z,101009.16
2022-10-06T03:56:18.563Z,101011.03
2022-10-06T03:58:46.527Z,101020.25
2022-10-06T04:01:14.250Z,101032.19
2022-10-06T04:03:41.971Z,101034.06
2022-10-06T04:06:09.664Z,101047.53
2022-10-06T04:08:37.343Z,101052.16
2022-10-06T04:11:05.064Z,101054.03
2022-10-06T04:13:32.772Z,101066.78
2022-10-06T04:16:00.570Z,101065.94
2022-10-06T04:18:28.660Z,101076.03
2022-10-06T04:20:56.647Z,101083.34
2022-10-06T04:23:24.356Z,101084.22
2022-10-06T04:25:55.811Z,101090.69
2022-10-06T04:28:23.943Z,101084.34
2022-10-06T04:30:51.757Z,101103.44
2022-10-06T04:33:20.114Z,101108.03
2022-10-06T04:35:47.819Z,101120.00
2022-10-06T04:38:16.149Z,101128.19
2022-10-06T04:40:43.873Z,101148.00
2022-10-06T04:43:11.654Z,101156.31
2022-10-06T04:45:39.478Z,101163.47
2022-10-06T04:48:09.995Z,101171.66
2022-10-06T04:50:37.921Z,101158.72
2022-10-06T04:53:05.621Z,101157.88
2022-10-06T04:55:33.811Z,101166.91
2022-10-06T04:58:01.713Z,101170.16
2022-10-06T05:00:29.535Z,101182.78
2022-10-06T05:02:57.218Z,101192.00
2022-10-06T05:05:25.042Z,101203.91
2022-10-06T05:07:52.829Z,101210.41
2022-10-06T05:10:20.529Z,101212.28
2022-10-06T05:12:48.249Z,101221.31
2022-10-06T05:15:16.607Z,101226.78
2022-10-06T05:17:44.310Z,101228.47
2022-10-06T05:20:12.580Z,101225.75
2022-10-06T05:22:40.343Z,101229.50
2022-10-06T05:25:08.033Z,101234.78
2022-10-06T05:27:35.824Z,101254.06
2022-10-06T05:30:03.535Z,101256.81
2022-10-06T05:32:35.773Z,101282.22
2022-10-06T05:35:04.534Z,101293.28
2022-10-06T05:37:32.231Z,101309.50
2022-10-06T05:39:59.913Z,101312.22
2022-10-06T05:42:29.868Z,101321.25
2022-10-06T05:44:57.721Z,101306.59
2022-10-06T05:47:25.435Z,101302.34
2022-10-06T05:49:53.149Z,101314.09
2022-10-06T05:52:20.845Z,101327.91
2022-10-06T05:54:48.509Z,101334.41
2022-10-06T05:57:16.205Z,101322.63
2022-10-06T05:59:43.967Z,101331.66
2022-10-06T06:02:11.727Z,101340.81
2022-10-06T06:04:39.482Z,101351.75
2022-10-06T06:07:07.211Z,101359.91
2022-10-06T06:09:34.894Z,101361.81
2022-10-06T06:12:02.659Z,101384.47
2022-10-06T06:14:44.258Z,101379.94
2022-10-06T06:17:12.111Z,101382.66
2022-10-06T06:19:39.820Z,101378.91
2022-10-06T06:22:07.593Z,101388.78
2022-10-06T06:24:35.345Z,101393.41
2022-10-06T06:27:03.037Z,101390.66
2022-10-06T06:29:30.754Z,101394.25
2022-10-06T06:31:58.465Z,101392.41
2022-10-06T06:34:26.999Z,101405.84
2022-10-06T06:36:56.989Z,101413.19
2022-10-06T06:39:25.480Z,101411.31
2022-10-06T06:41:53.959Z,101421.22
2022-10-06T06:44:22.188Z,101426.69
2022-10-06T06:46:50.248Z,101427.53
2022-10-06T06:49:19.064Z,101443.91
2022-10-06T06:51:49.963Z,101444.75
2022-10-06T06:54:18.235Z,101452.94
2022-10-06T06:56:46.663Z,101471.19
2022-10-06T06:59:14.328Z,101469.31
2022-10-06T07:01:44.557Z,101473.75
2022-10-06T07:04:12.950Z,101489.13
2022-10-06T07:06:41.166Z,101482.81
2022-10-06T07:09:08.835Z,101489.25
2022-10-06T07:11:36.554Z,101488.41
2022-10-06T07:14:04.257Z,101497.63
2022-10-06T07:17:00.956Z,101497.63
2022-10-06T07:19:46.041Z,101507.00
2022-10-06T07:22:31.141Z,101512.28
2022-10-06T07:25:12.638Z,101524.38
2022-10-06T07:27:41.407Z,101519.78
2022-10-06T07:30:09.843Z,101533.41
2022-10-06T07:32:38.222Z,101543.34
2022-10-06T07:35:06.408Z,101545.03
2022-10-06T07:37:34.892Z,101555.94
2022-10-06T07:40:02.627Z,101551.53
2022-10-06T07:42:30.485Z,101541.59
2022-10-06T07:45:15.630Z,101555.25
2022-10-06T07:47:43.323Z,101560.03
2022-10-06T07:50:12.953Z,101567.19
2022-10-06T07:52:40.684Z,101557.31
2022-10-06T07:55:08.420Z,101560.72
2022-10-06T07:57:36.109Z,101568.22
2022-10-06T08:00:05.537Z,101571.81
2022-10-06T08:02:35.773Z,101576.41
2022-10-06T08:05:04.167Z,101585.56
2022-10-06T08:07:31.917Z,101580.97
2022-10-06T08:09:59.622Z,101586.41
2022-10-06T08:12:37.935Z,101593.63
2022-10-06T08:15:07.605Z,101591.88
2022-10-06T08:17:35.670Z,101594.47
2022-10-06T08:20:03.451Z,101600.78
2022-10-06T08:22:31.184Z,101609.69
2022-10-06T08:25:08.375Z,101618.91
2022-10-06T08:27:36.438Z,101613.44
2022-10-06T08:30:04.217Z,101620.59
2022-10-06T08:32:32.181Z,101614.28
2022-10-06T08:34:59.923Z,101619.75
2022-10-06T08:37:27.816Z,101625.22
2022-10-06T08:39:55.521Z,101618.91
2022-10-06T08:42:23.226Z,101629.50
2022-10-06T08:44:50.954Z,101625.91
2022-10-06T08:47:19.134Z,101628.44
2022-10-06T08:49:46.959Z,101639.38
2022-10-06T08:52:14.784Z,101643.13
2022-10-06T08:54:42.716Z,101646.72
2022-10-06T08:57:10.461Z,101645.00
2022-10-06T08:59:38.163Z,101646.72
2022-10-06T09:02:06.880Z,101650.47
2022-10-06T09:04:34.675Z,101647.75
2022-10-06T09:07:06.668Z,101653.03
2022-10-06T09:09:38.328Z,101659.31
2022-10-06T09:12:06.838Z,101660.22
2022-10-06T09:14:34.850Z,101667.50
2022-10-06T09:17:02.547Z,101666.53
2022-10-06T09:19:33.578Z,101672.81
2022-10-06T09:22:02.390Z,101674.53
2022-10-06T09:24:30.264Z,101684.59
2022-10-06T09:26:58.484Z,101688.19
2022-10-06T09:29:28.189Z,101679.13
2022-10-06T09:31:56.099Z,101688.34
2022-10-06T09:34:23.863Z,101685.63
2022-10-06T09:36:51.634Z,101694.66
2022-10-06T09:39:20.039Z,101690.91
2022-10-06T09:41:47.769Z,101700.13
2022-10-06T09:44:15.544Z,101703.00
2022-10-06T09:46:43.598Z,101702.16
2022-10-06T09:49:11.301Z,101700.59
2022-10-06T09:51:39.076Z,101707.06
2022-10-06T09:54:10.470Z,101703.31
2022-10-06T09:56:38.218Z,101703.31
2022-10-06T09:59:10.760Z,101723.13
2022-10-06T10:01:38.489Z,101724.81
2022-10-06T10:04:19.950Z,101721.09
2022-10-06T10:06:48.128Z,101716.63
2022-10-06T10:09:17.831Z,101727.41
2022-10-06T10:12:05.825Z,101721.94
2022-10-06T10:14:33.516Z,101727.56
2022-10-06T10:17:01.176Z,101732.03
2022-10-06T10:19:29.111Z,101728.44
2022-10-06T10:21:57.407Z,101726.56
2022-10-06T10:24:25.175Z,101717.34
2022-10-06T10:26:53.780Z,101720.06
2022-10-06T10:29:21.487Z,101718.19
2022-10-06T10:31:49.345Z,101721.94
2022-10-06T10:34:24.960Z,101714.63
2022-10-06T10:36:52.890Z,101718.19
2022-10-06T10:39:20.820Z,101722.81
2022-10-06T10:41:48.658Z,101727.09
2022-10-06T10:44:16.339Z,101744.31
2022-10-06T10:46:44.885Z,101739.88
2022-10-06T10:49:12.642Z,101743.47
2022-10-06T10:51:40.315Z,101754.38
2022-10-06T10:54:08.171Z,101751.50
2022-10-06T10:56:35.941Z,101742.63
2022-10-06T10:59:04.228Z,101746.19
2022-10-06T11:01:31.997Z,101750.66
2022-10-06T11:03:59.775Z,101738.00
2022-10-06T11:06:27.496Z,101755.25
2022-10-06T11:08:55.237Z,101756.13
2022-10-06T11:11:22.965Z,101749.78
2022-10-06T11:13:50.710Z,101749.78
2022-10-06T11:16:18.462Z,101755.09
2022-10-06T11:18:47.079Z,101757.63
2022-10-06T11:21:14.758Z,101752.19
2022-10-06T11:23:42.977Z,101754.91
2022-10-06T11:26:11.065Z,101750.47
2022-10-06T11:28:39.363Z,101753.22
2022-10-06T11:31:07.186Z,101763.44
2022-10-06T11:33:35.033Z,101751.50
2022-10-06T11:36:02.945Z,101751.50
2022-10-06T11:38:30.636Z,101746.19
2022-10-06T11:40:58.385Z,101757.13
2022-10-06T11:43:29.391Z,101752.69
2022-10-06T11:46:00.069Z,101753.53
2022-10-06T11:48:27.861Z,101745.50
2022-10-06T11:50:56.856Z,101748.22
2022-10-06T11:53:26.056Z,101743.66
2022-10-06T11:55:53.796Z,101746.38
2022-10-06T11:58:41.516Z,101749.25
2022-10-06T12:01:09.229Z,101751.28
2022-10-06T12:03:36.959Z,101749.41
2022-10-06T12:06:04.691Z,101743.94
2022-10-06T12:08:33.093Z,101748.41
2022-10-06T12:11:00.760Z,101747.56
2022-10-06T12:19:04.425Z,101744.97
2022-10-06T12:21:32.116Z,101736.78
2022-10-06T12:24:01.153Z,101753.84
2022-10-06T12:26:29.741Z,101742.09
2022-10-06T12:28:57.629Z,101746.66
2022-10-06T12:31:25.402Z,101752.13
2022-10-06T12:33:53.171Z,101751.13
2022-10-06T12:36:20.875Z,101742.94
2022-10-06T12:38:48.517Z,101749.25
2022-10-06T12:41:16.458Z,101750.28
2022-10-06T12:43:44.231Z,101748.41
2022-10-06T12:46:12.362Z,101741.22
2022-10-06T12:48:40.101Z,101737.47
2022-10-06T12:51:07.812Z,101739.38
2022-10-06T12:53:35.504Z,101736.63
2022-10-06T12:56:03.210Z,101743.09
2022-10-06T12:58:32.584Z,101748.53
2022-10-06T13:01:00.635Z,101742.94
2022-10-06T13:03:28.430Z,101744.81
2022-10-06T13:05:56.119Z,101745.66
2022-10-06T13:08:23.785Z,101742.09
2022-10-06T13:10:51.738Z,101740.22
2022-10-06T13:13:19.536Z,101738.47
2022-10-06T13:15:47.270Z,101745.66
2022-10-06T13:18:14.910Z,101744.81
2022-10-06T13:20:42.667Z,101739.19
2022-10-06T13:23:12.674Z,101744.66
2022-10-06T13:25:40.531Z,101740.22
2022-10-06T13:28:08.519Z,101746.53
2022-10-06T13:30:38.767Z,101742.94
2022-10-06T13:33:06.872Z,101735.59
2022-10-06T13:35:34.900Z,101745.66
2022-10-06T13:38:05.443Z,101735.75
2022-10-06T13:40:44.033Z,101737.47
2022-10-06T13:43:12.975Z,101738.34
2022-10-06T13:45:40.819Z,101741.75
2022-10-06T13:48:08.607Z,101743.00
2022-10-06T13:50:36.375Z,101748.91
2022-10-06T13:53:04.195Z,101748.75
2022-10-06T13:55:32.573Z,101751.84
2022-10-06T13:58:03.499Z,101745.75
2022-10-06T14:00:34.622Z,101748.97
2022-10-06T14:03:02.403Z,101748.28
2022-10-06T14:05:30.665Z,101745.22
2022-10-06T14:07:58.463Z,101746.94
2022-10-06T14:10:29.252Z,101741.88
2022-10-06T14:12:57.008Z,101748.44
2022-10-06T14:15:24.971Z,101751.81
2022-10-06T14:17:52.747Z,101749.13
2022-10-06T14:20:20.508Z,101749.28
2022-10-06T14:22:48.342Z,101754.34
2022-10-06T14:25:16.365Z,101751.56
2022-10-06T14:27:44.166Z,101754.81
2022-10-06T14:30:12.045Z,101751.72
2022-10-06T14:32:40.320Z,101751.28
2022-10-06T14:35:10.293Z,101755.16
2022-10-06T14:37:38.211Z,101749.81
2022-10-06T14:40:11.496Z,101747.16
2022-10-06T14:42:40.029Z,101759.91
2022-10-06T14:45:08.189Z,101762.09
2022-10-06T14:47:35.985Z,101749.41
2022-10-06T14:50:03.867Z,101751.63
2022-10-06T14:52:31.671Z,101743.63
2022-10-06T14:55:00.308Z,101747.09
2022-10-06T14:57:28.402Z,101743.34
2022-10-06T14:59:56.490Z,101753.28
2022-10-06T15:02:25.494Z,101752.66
2022-10-06T15:04:53.413Z,101751.47
2022-10-06T15:07:38.619Z,101757.25
2022-10-06T15:10:06.668Z,101750.97
2022-10-06T15:12:34.632Z,101754.81
2022-10-06T15:15:02.460Z,101747.47
2022-10-06T15:17:30.424Z,101745.09
2022-10-06T15:19:59.378Z,101738.13
2022-10-06T15:22:27.191Z,101743.81
2022-10-06T15:24:55.008Z,101739.53
2022-10-06T15:30:08.301Z,101736.13
2022-10-06T15:32:36.152Z,101743.66
2022-10-06T15:35:04.020Z,101742.00
2022-10-06T15:37:31.989Z,101737.38
2022-10-06T15:39:59.808Z,101751.56
2022-10-06T15:42:32.260Z,101743.72
2022-10-06T15:45:03.877Z,101751.38
2022-10-06T15:47:35.653Z,101747.78
2022-10-06T15:50:03.907Z,101748.47
2022-10-06T15:52:34.402Z,101757.50
2022-10-06T15:55:02.222Z,101757.50
2022-10-06T15:57:31.097Z,101748.09
2022-10-06T15:59:58.993Z,101752.69
2022-10-06T16:02:27.397Z,101750.13
2022-10-06T16:05:17.268Z,101759.69
2022-10-06T16:07:45.601Z,101753.16
2022-10-06T16:10:13.689Z,101748.03
2022-10-06T16:12:43.817Z,101754.75
2022-10-06T16:15:11.877Z,101759.53
2022-10-06T16:17:39.894Z,101756.25
2022-10-06T16:20:08.360Z,101764.78
2022-10-06T16:22:36.768Z,101756.94
2022-10-06T16:25:04.891Z,101764.44
2022-10-06T16:27:33.681Z,101764.78
2022-10-06T16:30:02.198Z,101763.06
2022-10-06T16:32:30.097Z,101764.28
2022-10-06T16:34:58.291Z,101766.31
2022-10-06T16:37:26.194Z,101772.97
2022-10-06T16:39:54.130Z,101775.34
2022-10-06T16:42:21.974Z,101773.63
2022-10-06T16:44:50.286Z,101767.47
2022-10-06T16:47:18.283Z,101772.25
2022-10-06T16:49:49.115Z,101776.16
2022-10-06T16:52:17.401Z,101777.34
2022-10-06T16:54:45.286Z,101776.66
2022-10-06T16:57:13.202Z,101782.28
2022-10-06T16:59:46.623Z,101779.84
2022-10-06T17:02:15.199Z,101778.31
2022-10-06T17:04:43.975Z,101784.09
2022-10-06T17:07:13.103Z,101792.63
2022-10-06T17:10:01.567Z,101790.09
2022-10-06T17:12:30.909Z,101795.00
2022-10-06T17:15:01.810Z,101793.31
2022-10-06T17:17:30.859Z,101796.19
2022-10-06T17:19:59.859Z,101800.81
2022-10-06T17:22:28.297Z,101799.09
2022-10-06T17:24:56.983Z,101799.22
2022-10-06T17:27:29.279Z,101802.09
2022-10-06T17:29:58.145Z,101794.94
2022-10-06T17:32:26.854Z,101799.53
2022-10-06T17:34:56.057Z,101800.53
2022-10-06T17:37:24.238Z,101809.78
2022-10-06T17:39:52.739Z,101810.50
2022-10-06T17:42:20.803Z,101810.09
2022-10-06T17:44:49.390Z,101811.78
2022-10-06T17:47:17.512Z,101814.13
2022-10-06T17:49:45.808Z,101815.28
2022-10-06T17:52:13.798Z,101818.03
2022-10-06T17:54:43.271Z,101815.28
2022-10-06T17:57:11.224Z,101819.44
2022-10-06T17:59:39.263Z,101818.03
2022-10-06T18:02:08.738Z,101806.97
2022-10-06T18:04:38.142Z,101814.50
2022-10-06T18:07:08.867Z,101816.91
2022-10-06T18:09:38.371Z,101817.56
2022-10-06T18:12:07.075Z,101816.59
2022-10-06T18:14:35.171Z,101819.22
2022-10-06T18:17:03.902Z,101811.81
2022-10-06T18:19:32.388Z,101815.78
2022-10-06T18:22:00.210Z,101819.75
2022-10-06T18:24:28.232Z,101820.97
2022-10-06T18:26:56.467Z,101818.88
2022-10-06T18:29:24.376Z,101819.13
2022-10-06T18:31:52.404Z,101807.00
2022-10-06T18:37:08.282Z,101810.72
2022-10-06T18:39:36.367Z,101814.84
2022-10-06T18:42:05.441Z,101815.75
2022-10-06T18:44:51.041Z,101818.00
2022-10-06T18:47:36.066Z,101813.38
2022-10-06T18:50:03.994Z,101810.94
2022-10-06T18:52:33.128Z,101808.22
2022-10-06T18:55:01.127Z,101816.41
2022-10-06T18:57:29.023Z,101825.50
2022-10-06T18:59:56.823Z,101822.94
2022-10-06T19:02:26.402Z,101816.78
2022-10-06T19:04:54.209Z,101826.50
2022-10-06T19:07:22.524Z,101832.84
2022-10-06T19:09:50.327Z,101834.75
2022-10-06T19:12:18.142Z,101833.69
2022-10-06T19:14:47.910Z,101840.91
2022-10-06T19:17:15.956Z,101834.38
2022-10-06T19:19:44.234Z,101829.75
2022-10-06T19:22:12.065Z,101831.28
2022-10-06T19:24:40.239Z,101827.50
2022-10-06T19:27:11.772Z,101838.09
2022-10-06T19:29:41.423Z,101843.22
2022-10-06T19:32:09.307Z,101849.31
2022-10-06T19:34:37.401Z,101844.34
2022-10-06T19:37:05.175Z,101835.63
2022-10-06T19:39:33.040Z,101844.31
2022-10-06T19:42:18.455Z,101851.31
2022-10-06T19:44:46.458Z,101850.25
2022-10-06T19:47:14.614Z,101856.06
2022-10-06T19:49:42.319Z,101852.97
2022-10-06T19:52:10.147Z,101847.81
2022-10-06T19:54:38.685Z,101850.50
2022-10-06T19:57:06.356Z,101849.13
2022-10-06T19:59:34.115Z,101852.00
2022-10-06T20:02:02.322Z,101851.47
2022-10-06T20:04:30.157Z,101853.66
2022-10-06T20:07:01.817Z,101856.72
2022-10-06T20:09:31.890Z,101867.13
2022-10-06T20:11:59.580Z,101870.19
2022-10-06T20:14:27.532Z,101866.63
2022-10-06T20:16:55.630Z,101866.75
2022-10-06T20:19:25.312Z,101866.91
2022-10-06T20:21:53.152Z,101865.34
2022-10-06T20:24:22.600Z,101862.91
2022-10-06T20:26:50.570Z,101865.84
2022-10-06T20:29:18.400Z,101859.66
2022-10-06T20:31:46.243Z,101860.66
2022-10-06T20:34:14.264Z,101852.63
2022-10-06T20:36:42.005Z,101849.22
2022-10-06T20:39:27.509Z,101853.97
2022-10-06T20:41:55.835Z,101855.31
2022-10-06T20:44:23.544Z,101850.72
2022-10-06T20:46:51.509Z,101854.28
2022-10-06T20:49:19.384Z,101852.59
2022-10-06T20:51:49.947Z,101859.94
2022-10-06T20:54:17.587Z,101851.88
2022-10-06T20:56:45.309Z,101851.88
2022-10-06T20:59:13.084Z,101845.72
2022-10-06T21:01:40.926Z,101846.75
2022-10-06T21:04:09.239Z,101846.03
2022-10-06T21:06:38.126Z,101844.16
2022-10-06T21:09:05.806Z,101844.34
2022-10-06T21:11:33.752Z,101843.47
2022-10-06T21:14:02.191Z,101845.34
2022-10-06T21:16:32.135Z,101841.91
2022-10-06T21:19:00.118Z,101847.38
2022-10-06T21:21:27.817Z,101840.19
2022-10-06T21:23:55.606Z,101843.97
2022-10-06T21:26:23.318Z,101838.50
2022-10-06T21:28:52.583Z,101835.91
2022-10-06T21:31:20.399Z,101830.44
2022-10-06T21:33:50.328Z,101834.22
2022-10-06T21:36:18.047Z,101834.34
2022-10-06T21:38:47.338Z,101833.31
2022-10-06T21:41:31.613Z,101832.66
2022-10-06T21:43:59.462Z,101834.69
2022-10-06T21:46:28.830Z,101831.09
2022-10-06T21:48:56.812Z,101835.69
2022-10-06T21:51:24.900Z,101826.81
2022-10-06T21:53:52.664Z,101832.59
2022-10-06T21:56:21.423Z,101830.88
2022-10-06T21:58:51.477Z,101822.84
2022-10-06T22:01:19.283Z,101819.22
2022-10-06T22:03:47.025Z,101823.84
2022-10-06T22:06:19.141Z,101824.88
2022-10-06T22:08:47.414Z,101822.28
2022-10-06T22:11:15.285Z,101819.56
2022-10-06T22:13:42.961Z,101820.59
2022-10-06T22:16:10.902Z,101818.84
2022-10-06T22:18:38.796Z,101821.59
2022-10-06T22:21:06.546Z,101811.69
2022-10-06T22:23:34.265Z,101817.16
2022-10-06T22:26:01.988Z,101819.88
2022-10-06T22:28:29.955Z,101820.91
2022-10-06T22:30:57.786Z,101815.44
2022-10-06T22:33:25.573Z,101819.03
2022-10-06T22:35:53.292Z,101815.44
2022-10-06T22:38:21.012Z,101807.25
2022-10-06T22:40:48.688Z,101808.44
2022-10-06T22:43:16.632Z,101805.53
2022-10-06T22:45:44.312Z,101809.09
2022-10-06T22:48:12.257Z,101801.09
2022-10-06T22:50:40.071Z,101810.13
2022-10-06T22:53:07.761Z,101806.56
2022-10-06T22:55:35.450Z,101805.53
2022-10-06T22:58:03.556Z,101802.97
2022-10-06T23:00:31.243Z,101810.28
2022-10-06T23:02:59.167Z,101801.22
2022-10-06T23:05:26.873Z,101805.00
2022-10-06T23:07:54.659Z,101793.22
2022-10-06T23:10:22.404Z,101803.13
2022-10-06T23:12:50.091Z,101790.50
2022-10-06T23:15:17.799Z,101791.34
2022-10-06T23:17:46.014Z,101787.75
2022-10-06T23:20:14.267Z,101785.88
2022-10-06T23:22:41.992Z,101789.59
2022-10-06T23:25:09.665Z,101786.03
2022-10-06T23:27:37.349Z,101782.44
2022-10-06T23:30:05.145Z,101786.22
2022-10-06T23:32:32.820Z,101796.25
2022-10-06T23:35:00.636Z,101784.66
2022-10-06T23:37:28.321Z,101789.09
2022-10-06T23:39:56.058Z,101789.22
2022-10-06T23:42:23.766Z,101783.78
2022-10-06T23:44:51.441Z,101793.84
2022-10-06T23:47:19.333Z,101790.25
2022-10-06T23:49:47.059Z,101782.91
2022-10-06T23:52:14.746Z,101781.22
2022-10-06T23:54:42.485Z,101787.53
2022-10-06T23:57:10.562Z,101794.88
2022-10-06T23:59:38.285Z,101787.66
